sensor_id;sensor_type;location;lat;lon;timestamp;P1;durP1;ratioP1;P2;durP2;ratioP2
31652;SDS011;18261;53.648;9.910;2024-01-27T00:01:47;80.78;;;8.63;;
31652;SDS011;18261;53.648;9.910;2024-01-27T00:04:12;73.10;;;8.35;;
31652;SDS011;18261;53.648;9.910;2024-01-27T00:06:38;67.88;;;8.18;;
31652;SDS011;18261;53.648;9.910;2024-01-27T00:09:04;71.03;;;7.00;;
31652;SDS011;18261;53.648;9.910;2024-01-27T00:11:31;54.50;;;7.43;;
31652;SDS011;18261;53.648;9.910;2024-01-27T00:13:57;61.30;;;7.43;;
31652;SDS011;18261;53.648;9.910;2024-01-27T00:16:24;68.10;;;7.93;;
31652;SDS011;18261;53.648;9.910;2024-01-27T00:18:49;67.43;;;7.57;;
31652;SDS011;18261;53.648;9.910;2024-01-27T00:21:15;69.43;;;7.95;;
31652;SDS011;18261;53.648;9.910;2024-01-27T00:23:41;67.38;;;8.65;;
31652;SDS011;18261;53.648;9.910;2024-01-27T00:26:06;72.22;;;7.97;;
31652;SDS011;18261;53.648;9.910;2024-01-27T00:28:32;52.40;;;6.45;;
31652;SDS011;18261;53.648;9.910;2024-01-27T00:30:57;60.85;;;7.57;;
31652;SDS011;18261;53.648;9.910;2024-01-27T00:33:23;73.25;;;8.35;;
31652;SDS011;18261;53.648;9.910;2024-01-27T00:35:49;67.55;;;8.63;;
31652;SDS011;18261;53.648;9.910;2024-01-27T00:38:14;65.30;;;6.82;;
31652;SDS011;18261;53.648;9.910;2024-01-27T00:40:40;62.97;;;8.35;;
31652;SDS011;18261;53.648;9.910;2024-01-27T00:43:06;58.60;;;8.20;;
31652;SDS011;18261;53.648;9.910;2024-01-27T00:45:31;81.65;;;7.47;;
31652;SDS011;18261;53.648;9.910;2024-01-27T00:47:57;63.03;;;6.45;;
31652;SDS011;18261;53.648;9.910;2024-01-27T00:50:23;63.72;;;6.90;;
31652;SDS011;18261;53.648;9.910;2024-01-27T00:52:48;73.65;;;8.35;;
31652;SDS011;18261;53.648;9.910;2024-01-27T00:55:14;66.80;;;8.43;;
31652;SDS011;18261;53.648;9.910;2024-01-27T00:57:40;65.47;;;7.57;;
31652;SDS011;18261;53.648;9.910;2024-01-27T01:00:06;79.28;;;8.95;;
31652;SDS011;18261;53.648;9.910;2024-01-27T01:02:32;77.13;;;10.20;;
31652;SDS011;18261;53.648;9.910;2024-01-27T01:04:58;62.28;;;7.82;;
31652;SDS011;18261;53.648;9.910;2024-01-27T01:07:24;68.50;;;8.77;;
31652;SDS011;18261;53.648;9.910;2024-01-27T01:09:49;71.65;;;8.50;;
31652;SDS011;18261;53.648;9.910;2024-01-27T01:12:15;63.75;;;7.97;;
31652;SDS011;18261;53.648;9.910;2024-01-27T01:14:40;69.90;;;8.18;;
31652;SDS011;18261;53.648;9.910;2024-01-27T01:17:06;65.22;;;8.43;;
31652;SDS011;18261;53.648;9.910;2024-01-27T01:19:32;77.97;;;8.57;;
31652;SDS011;18261;53.648;9.910;2024-01-27T01:21:58;78.45;;;8.90;;
31652;SDS011;18261;53.648;9.910;2024-01-27T01:24:23;69.05;;;8.00;;
31652;SDS011;18261;53.648;9.910;2024-01-27T01:26:49;69.70;;;9.07;;
31652;SDS011;18261;53.648;9.910;2024-01-27T01:29:14;77.63;;;9.73;;
31652;SDS011;18261;53.648;9.910;2024-01-27T01:31:44;75.75;;;8.90;;
31652;SDS011;18261;53.648;9.910;2024-01-27T01:34:09;65.20;;;8.40;;
31652;SDS011;18261;53.648;9.910;2024-01-27T01:36:35;75.22;;;8.68;;
31652;SDS011;18261;53.648;9.910;2024-01-27T01:39:00;67.90;;;8.30;;
31652;SDS011;18261;53.648;9.910;2024-01-27T01:41:26;62.05;;;8.30;;
31652;SDS011;18261;53.648;9.910;2024-01-27T01:43:51;69.03;;;9.15;;
31652;SDS011;18261;53.648;9.910;2024-01-27T01:46:17;72.82;;;9.00;;
31652;SDS011;18261;53.648;9.910;2024-01-27T01:48:43;75.10;;;9.13;;
31652;SDS011;18261;53.648;9.910;2024-01-27T01:51:09;60.95;;;8.23;;
31652;SDS011;18261;53.648;9.910;2024-01-27T01:53:36;64.25;;;7.40;;
31652;SDS011;18261;53.648;9.910;2024-01-27T01:56:02;71.93;;;7.35;;
31652;SDS011;18261;53.648;9.910;2024-01-27T01:58:29;72.18;;;8.77;;
31652;SDS011;18261;53.648;9.910;2024-01-27T02:00:59;69.32;;;8.63;;
31652;SDS011;18261;53.648;9.910;2024-01-27T02:03:28;69.78;;;7.60;;
31652;SDS011;18261;53.648;9.910;2024-01-27T02:05:54;66.40;;;8.13;;
31652;SDS011;18261;53.648;9.910;2024-01-27T02:08:20;64.55;;;6.93;;
31652;SDS011;18261;53.648;9.910;2024-01-27T02:10:46;74.13;;;9.60;;
31652;SDS011;18261;53.648;9.910;2024-01-27T02:13:16;85.20;;;8.05;;
31652;SDS011;18261;53.648;9.910;2024-01-27T02:15:43;69.70;;;8.48;;
31652;SDS011;18261;53.648;9.910;2024-01-27T02:18:09;74.10;;;8.27;;
31652;SDS011;18261;53.648;9.910;2024-01-27T02:20:34;76.68;;;8.27;;
31652;SDS011;18261;53.648;9.910;2024-01-27T02:23:00;61.60;;;7.47;;
31652;SDS011;18261;53.648;9.910;2024-01-27T02:25:29;74.85;;;7.55;;
31652;SDS011;18261;53.648;9.910;2024-01-27T02:27:58;74.85;;;8.10;;
31652;SDS011;18261;53.648;9.910;2024-01-27T02:30:24;78.78;;;9.60;;
31652;SDS011;18261;53.648;9.910;2024-01-27T02:32:50;77.35;;;7.88;;
31652;SDS011;18261;53.648;9.910;2024-01-27T02:35:16;75.63;;;8.18;;
31652;SDS011;18261;53.648;9.910;2024-01-27T02:37:42;63.90;;;7.43;;
31652;SDS011;18261;53.648;9.910;2024-01-27T02:40:08;63.90;;;8.02;;
31652;SDS011;18261;53.648;9.910;2024-01-27T02:42:37;79.63;;;8.90;;
31652;SDS011;18261;53.648;9.910;2024-01-27T02:45:03;67.88;;;8.32;;
31652;SDS011;18261;53.648;9.910;2024-01-27T02:47:29;71.20;;;7.63;;
31652;SDS011;18261;53.648;9.910;2024-01-27T02:49:55;62.35;;;7.85;;
31652;SDS011;18261;53.648;9.910;2024-01-27T02:52:21;61.70;;;7.18;;
31652;SDS011;18261;53.648;9.910;2024-01-27T02:54:46;65.82;;;7.25;;
31652;SDS011;18261;53.648;9.910;2024-01-27T02:57:12;62.60;;;7.80;;
31652;SDS011;18261;53.648;9.910;2024-01-27T02:59:38;78.78;;;8.57;;
31652;SDS011;18261;53.648;9.910;2024-01-27T03:02:04;65.68;;;7.97;;
31652;SDS011;18261;53.648;9.910;2024-01-27T03:04:30;67.53;;;7.03;;
31652;SDS011;18261;53.648;9.910;2024-01-27T03:06:56;79.70;;;8.27;;
31652;SDS011;18261;53.648;9.910;2024-01-27T03:09:22;67.40;;;7.70;;
31652;SDS011;18261;53.648;9.910;2024-01-27T03:11:47;82.93;;;9.02;;
31652;SDS011;18261;53.648;9.910;2024-01-27T03:14:13;70.05;;;8.20;;
31652;SDS011;18261;53.648;9.910;2024-01-27T03:16:39;79.78;;;8.32;;
31652;SDS011;18261;53.648;9.910;2024-01-27T03:19:05;74.68;;;8.15;;
31652;SDS011;18261;53.648;9.910;2024-01-27T03:21:31;75.20;;;7.80;;
31652;SDS011;18261;53.648;9.910;2024-01-27T03:23:57;71.35;;;7.93;;
31652;SDS011;18261;53.648;9.910;2024-01-27T03:26:22;75.93;;;7.53;;
31652;SDS011;18261;53.648;9.910;2024-01-27T03:28:48;97.38;;;10.48;;
31652;SDS011;18261;53.648;9.910;2024-01-27T03:31:13;75.88;;;9.20;;
31652;SDS011;18261;53.648;9.910;2024-01-27T03:33:39;73.32;;;9.20;;
31652;SDS011;18261;53.648;9.910;2024-01-27T03:36:11;77.50;;;8.38;;
31652;SDS011;18261;53.648;9.910;2024-01-27T03:38:38;56.17;;;8.25;;
31652;SDS011;18261;53.648;9.910;2024-01-27T03:41:06;69.50;;;7.57;;
31652;SDS011;18261;53.648;9.910;2024-01-27T03:43:35;68.93;;;9.55;;
31652;SDS011;18261;53.648;9.910;2024-01-27T03:46:01;63.33;;;8.23;;
31652;SDS011;18261;53.648;9.910;2024-01-27T03:48:28;71.32;;;8.30;;
31652;SDS011;18261;53.648;9.910;2024-01-27T03:50:53;80.70;;;8.50;;
31652;SDS011;18261;53.648;9.910;2024-01-27T03:53:19;80.72;;;8.50;;
31652;SDS011;18261;53.648;9.910;2024-01-27T03:55:45;67.00;;;8.68;;
31652;SDS011;18261;53.648;9.910;2024-01-27T03:58:10;65.22;;;8.23;;
31652;SDS011;18261;53.648;9.910;2024-01-27T04:00:36;64.25;;;7.68;;
31652;SDS011;18261;53.648;9.910;2024-01-27T04:03:02;62.88;;;9.13;;
31652;SDS011;18261;53.648;9.910;2024-01-27T04:05:31;81.15;;;8.73;;
31652;SDS011;18261;53.648;9.910;2024-01-27T04:07:56;78.65;;;8.02;;
31652;SDS011;18261;53.648;9.910;2024-01-27T04:10:22;88.80;;;9.35;;
31652;SDS011;18261;53.648;9.910;2024-01-27T04:12:48;66.97;;;7.93;;
31652;SDS011;18261;53.648;9.910;2024-01-27T04:15:14;61.70;;;6.97;;
31652;SDS011;18261;53.648;9.910;2024-01-27T04:17:40;54.75;;;7.28;;
31652;SDS011;18261;53.648;9.910;2024-01-27T04:20:06;77.35;;;7.60;;
31652;SDS011;18261;53.648;9.910;2024-01-27T04:22:33;81.15;;;8.02;;
31652;SDS011;18261;53.648;9.910;2024-01-27T04:24:59;70.88;;;7.40;;
31652;SDS011;18261;53.648;9.910;2024-01-27T04:27:29;70.28;;;7.80;;
31652;SDS011;18261;53.648;9.910;2024-01-27T04:29:55;71.65;;;7.95;;
31652;SDS011;18261;53.648;9.910;2024-01-27T04:32:22;76.13;;;8.93;;
31652;SDS011;18261;53.648;9.910;2024-01-27T04:34:48;70.22;;;8.48;;
31652;SDS011;18261;53.648;9.910;2024-01-27T04:37:14;64.72;;;8.23;;
31652;SDS011;18261;53.648;9.910;2024-01-27T04:39:40;60.97;;;8.05;;
31652;SDS011;18261;53.648;9.910;2024-01-27T04:42:05;72.80;;;7.75;;
31652;SDS011;18261;53.648;9.910;2024-01-27T04:44:31;77.18;;;8.15;;
31652;SDS011;18261;53.648;9.910;2024-01-27T04:46:57;69.60;;;7.50;;
31652;SDS011;18261;53.648;9.910;2024-01-27T04:49:23;82.38;;;8.93;;
31652;SDS011;18261;53.648;9.910;2024-01-27T04:51:49;70.78;;;7.93;;
31652;SDS011;18261;53.648;9.910;2024-01-27T04:54:15;72.63;;;7.22;;
31652;SDS011;18261;53.648;9.910;2024-01-27T04:56:40;84.75;;;7.90;;
31652;SDS011;18261;53.648;9.910;2024-01-27T04:59:06;77.45;;;7.70;;
31652;SDS011;18261;53.648;9.910;2024-01-27T05:01:32;66.93;;;7.55;;
31652;SDS011;18261;53.648;9.910;2024-01-27T05:03:58;71.32;;;7.88;;
31652;SDS011;18261;53.648;9.910;2024-01-27T05:06:24;75.43;;;8.13;;
31652;SDS011;18261;53.648;9.910;2024-01-27T05:08:49;58.72;;;7.60;;
31652;SDS011;18261;53.648;9.910;2024-01-27T05:11:15;78.90;;;7.85;;
31652;SDS011;18261;53.648;9.910;2024-01-27T05:16:15;67.32;;;7.50;;
31652;SDS011;18261;53.648;9.910;2024-01-27T05:18:41;75.38;;;7.45;;
31652;SDS011;18261;53.648;9.910;2024-01-27T05:21:06;86.15;;;8.45;;
31652;SDS011;18261;53.648;9.910;2024-01-27T05:23:32;74.45;;;7.90;;
31652;SDS011;18261;53.648;9.910;2024-01-27T05:25:58;57.92;;;8.00;;
31652;SDS011;18261;53.648;9.910;2024-01-27T05:28:23;72.32;;;8.50;;
31652;SDS011;18261;53.648;9.910;2024-01-27T05:30:50;57.35;;;7.18;;
31652;SDS011;18261;53.648;9.910;2024-01-27T05:33:15;57.22;;;7.78;;
31652;SDS011;18261;53.648;9.910;2024-01-27T05:35:41;59.75;;;8.02;;
31652;SDS011;18261;53.648;9.910;2024-01-27T05:38:07;56.30;;;6.45;;
31652;SDS011;18261;53.648;9.910;2024-01-27T05:40:33;57.78;;;6.90;;
31652;SDS011;18261;53.648;9.910;2024-01-27T05:42:58;66.68;;;6.80;;
31652;SDS011;18261;53.648;9.910;2024-01-27T05:45:24;69.63;;;7.50;;
31652;SDS011;18261;53.648;9.910;2024-01-27T05:47:51;78.88;;;8.13;;
31652;SDS011;18261;53.648;9.910;2024-01-27T05:50:17;77.47;;;8.23;;
31652;SDS011;18261;53.648;9.910;2024-01-27T05:52:42;78.85;;;8.18;;
31652;SDS011;18261;53.648;9.910;2024-01-27T05:55:08;85.35;;;9.55;;
31652;SDS011;18261;53.648;9.910;2024-01-27T05:57:36;62.38;;;7.78;;
31652;SDS011;18261;53.648;9.910;2024-01-27T06:00:02;64.95;;;8.05;;
31652;SDS011;18261;53.648;9.910;2024-01-27T06:02:28;76.18;;;8.00;;
31652;SDS011;18261;53.648;9.910;2024-01-27T06:04:54;70.28;;;9.27;;
31652;SDS011;18261;53.648;9.910;2024-01-27T06:07:19;72.03;;;7.82;;
31652;SDS011;18261;53.648;9.910;2024-01-27T06:09:45;80.10;;;8.75;;
31652;SDS011;18261;53.648;9.910;2024-01-27T06:12:10;80.88;;;8.98;;
31652;SDS011;18261;53.648;9.910;2024-01-27T06:14:36;75.75;;;8.77;;
31652;SDS011;18261;53.648;9.910;2024-01-27T06:17:05;85.45;;;9.45;;
31652;SDS011;18261;53.648;9.910;2024-01-27T06:19:30;77.72;;;9.27;;
31652;SDS011;18261;53.648;9.910;2024-01-27T06:21:57;61.33;;;8.77;;
31652;SDS011;18261;53.648;9.910;2024-01-27T06:24:22;68.90;;;9.02;;
31652;SDS011;18261;53.648;9.910;2024-01-27T06:26:48;74.47;;;8.88;;
31652;SDS011;18261;53.648;9.910;2024-01-27T06:29:14;68.20;;;7.57;;
31652;SDS011;18261;53.648;9.910;2024-01-27T06:31:39;58.10;;;7.68;;
31652;SDS011;18261;53.648;9.910;2024-01-27T06:34:06;75.97;;;9.02;;
31652;SDS011;18261;53.648;9.910;2024-01-27T06:36:32;64.28;;;8.38;;
31652;SDS011;18261;53.648;9.910;2024-01-27T06:38:58;77.75;;;7.75;;
31652;SDS011;18261;53.648;9.910;2024-01-27T06:41:24;70.25;;;7.80;;
31652;SDS011;18261;53.648;9.910;2024-01-27T06:43:49;68.00;;;9.15;;
31652;SDS011;18261;53.648;9.910;2024-01-27T06:46:15;77.88;;;8.95;;
31652;SDS011;18261;53.648;9.910;2024-01-27T06:48:40;64.35;;;9.00;;
31652;SDS011;18261;53.648;9.910;2024-01-27T06:51:06;59.78;;;7.97;;
31652;SDS011;18261;53.648;9.910;2024-01-27T06:53:32;60.63;;;6.95;;
31652;SDS011;18261;53.648;9.910;2024-01-27T06:55:57;66.90;;;8.70;;
31652;SDS011;18261;53.648;9.910;2024-01-27T06:58:23;58.00;;;7.28;;
31652;SDS011;18261;53.648;9.910;2024-01-27T07:00:49;53.80;;;7.68;;
31652;SDS011;18261;53.648;9.910;2024-01-27T07:03:14;78.28;;;7.13;;
31652;SDS011;18261;53.648;9.910;2024-01-27T07:05:40;54.45;;;7.45;;
31652;SDS011;18261;53.648;9.910;2024-01-27T07:08:06;63.92;;;7.95;;
31652;SDS011;18261;53.648;9.910;2024-01-27T07:10:33;68.75;;;10.90;;
31652;SDS011;18261;53.648;9.910;2024-01-27T07:12:59;64.45;;;7.55;;
31652;SDS011;18261;53.648;9.910;2024-01-27T07:15:25;55.58;;;7.40;;
31652;SDS011;18261;53.648;9.910;2024-01-27T07:17:51;63.67;;;8.23;;
31652;SDS011;18261;53.648;9.910;2024-01-27T07:20:18;71.65;;;8.60;;
31652;SDS011;18261;53.648;9.910;2024-01-27T07:22:44;57.58;;;7.38;;
31652;SDS011;18261;53.648;9.910;2024-01-27T07:25:09;61.10;;;7.85;;
31652;SDS011;18261;53.648;9.910;2024-01-27T07:27:35;66.07;;;8.57;;
31652;SDS011;18261;53.648;9.910;2024-01-27T07:30:01;71.78;;;8.43;;
31652;SDS011;18261;53.648;9.910;2024-01-27T07:32:28;59.13;;;7.93;;
31652;SDS011;18261;53.648;9.910;2024-01-27T07:34:53;60.92;;;8.32;;
31652;SDS011;18261;53.648;9.910;2024-01-27T07:37:19;63.72;;;7.60;;
31652;SDS011;18261;53.648;9.910;2024-01-27T07:39:46;51.78;;;6.20;;
31652;SDS011;18261;53.648;9.910;2024-01-27T07:42:13;55.65;;;7.25;;
31652;SDS011;18261;53.648;9.910;2024-01-27T07:44:40;58.38;;;7.25;;
31652;SDS011;18261;53.648;9.910;2024-01-27T07:47:06;53.55;;;7.78;;
31652;SDS011;18261;53.648;9.910;2024-01-27T07:49:31;61.92;;;7.70;;
31652;SDS011;18261;53.648;9.910;2024-01-27T07:51:57;64.25;;;7.55;;
31652;SDS011;18261;53.648;9.910;2024-01-27T07:54:22;53.60;;;6.65;;
31652;SDS011;18261;53.648;9.910;2024-01-27T07:56:48;61.53;;;7.10;;
31652;SDS011;18261;53.648;9.910;2024-01-27T07:59:14;53.33;;;6.20;;
31652;SDS011;18261;53.648;9.910;2024-01-27T08:01:40;69.80;;;7.13;;
31652;SDS011;18261;53.648;9.910;2024-01-27T08:04:06;52.17;;;6.90;;
31652;SDS011;18261;53.648;9.910;2024-01-27T08:06:32;57.83;;;6.75;;
31652;SDS011;18261;53.648;9.910;2024-01-27T08:08:57;57.53;;;6.72;;
31652;SDS011;18261;53.648;9.910;2024-01-27T08:11:24;45.65;;;6.03;;
31652;SDS011;18261;53.648;9.910;2024-01-27T08:13:49;57.00;;;7.03;;
31652;SDS011;18261;53.648;9.910;2024-01-27T08:16:15;63.35;;;7.68;;
31652;SDS011;18261;53.648;9.910;2024-01-27T08:18:41;50.30;;;6.53;;
31652;SDS011;18261;53.648;9.910;2024-01-27T08:21:08;58.17;;;6.78;;
31652;SDS011;18261;53.648;9.910;2024-01-27T08:23:35;51.92;;;7.63;;
31652;SDS011;18261;53.648;9.910;2024-01-27T08:26:00;47.95;;;7.32;;
31652;SDS011;18261;53.648;9.910;2024-01-27T08:28:26;58.75;;;6.93;;
31652;SDS011;18261;53.648;9.910;2024-01-27T08:30:52;56.33;;;7.32;;
31652;SDS011;18261;53.648;9.910;2024-01-27T08:33:18;45.38;;;6.40;;
31652;SDS011;18261;53.648;9.910;2024-01-27T08:35:45;42.70;;;6.65;;
31652;SDS011;18261;53.648;9.910;2024-01-27T08:38:11;48.22;;;6.20;;
31652;SDS011;18261;53.648;9.910;2024-01-27T08:40:37;52.63;;;6.70;;
31652;SDS011;18261;53.648;9.910;2024-01-27T08:43:03;50.30;;;7.15;;
31652;SDS011;18261;53.648;9.910;2024-01-27T08:45:29;50.83;;;7.22;;
31652;SDS011;18261;53.648;9.910;2024-01-27T08:47:54;56.60;;;7.18;;
31652;SDS011;18261;53.648;9.910;2024-01-27T08:50:20;36.78;;;6.93;;
31652;SDS011;18261;53.648;9.910;2024-01-27T08:52:46;46.67;;;6.82;;
31652;SDS011;18261;53.648;9.910;2024-01-27T08:55:12;45.40;;;7.78;;
31652;SDS011;18261;53.648;9.910;2024-01-27T08:57:38;37.20;;;5.38;;
31652;SDS011;18261;53.648;9.910;2024-01-27T09:00:03;48.47;;;6.93;;
31652;SDS011;18261;53.648;9.910;2024-01-27T09:02:29;36.28;;;7.45;;
31652;SDS011;18261;53.648;9.910;2024-01-27T09:04:55;40.70;;;6.57;;
31652;SDS011;18261;53.648;9.910;2024-01-27T09:07:21;39.88;;;6.20;;
31652;SDS011;18261;53.648;9.910;2024-01-27T09:09:46;44.92;;;6.50;;
31652;SDS011;18261;53.648;9.910;2024-01-27T09:12:12;38.03;;;5.20;;
31652;SDS011;18261;53.648;9.910;2024-01-27T09:14:38;43.25;;;7.25;;
31652;SDS011;18261;53.648;9.910;2024-01-27T09:17:04;38.30;;;6.00;;
31652;SDS011;18261;53.648;9.910;2024-01-27T09:19:29;42.42;;;6.25;;
31652;SDS011;18261;53.648;9.910;2024-01-27T09:21:55;31.92;;;6.30;;
31652;SDS011;18261;53.648;9.910;2024-01-27T09:24:20;43.63;;;6.85;;
31652;SDS011;18261;53.648;9.910;2024-01-27T09:26:46;37.75;;;6.68;;
31652;SDS011;18261;53.648;9.910;2024-01-27T09:29:11;36.15;;;5.75;;
31652;SDS011;18261;53.648;9.910;2024-01-27T09:31:37;33.25;;;5.97;;
31652;SDS011;18261;53.648;9.910;2024-01-27T09:34:03;38.13;;;6.55;;
31652;SDS011;18261;53.648;9.910;2024-01-27T09:36:28;36.53;;;5.53;;
31652;SDS011;18261;53.648;9.910;2024-01-27T09:38:54;51.72;;;6.75;;
31652;SDS011;18261;53.648;9.910;2024-01-27T09:41:20;36.33;;;5.57;;
31652;SDS011;18261;53.648;9.910;2024-01-27T09:43:46;31.15;;;6.03;;
31652;SDS011;18261;53.648;9.910;2024-01-27T09:46:13;31.42;;;5.70;;
31652;SDS011;18261;53.648;9.910;2024-01-27T09:48:40;31.48;;;5.13;;
31652;SDS011;18261;53.648;9.910;2024-01-27T09:51:07;34.58;;;5.68;;
31652;SDS011;18261;53.648;9.910;2024-01-27T09:53:34;36.92;;;6.18;;
31652;SDS011;18261;53.648;9.910;2024-01-27T09:56:00;31.23;;;5.50;;
31652;SDS011;18261;53.648;9.910;2024-01-27T09:58:29;43.70;;;5.75;;
31652;SDS011;18261;53.648;9.910;2024-01-27T10:00:59;34.42;;;5.70;;
31652;SDS011;18261;53.648;9.910;2024-01-27T10:03:26;35.40;;;6.18;;
31652;SDS011;18261;53.648;9.910;2024-01-27T10:05:53;36.35;;;7.03;;
31652;SDS011;18261;53.648;9.910;2024-01-27T10:08:23;32.25;;;5.68;;
31652;SDS011;18261;53.648;9.910;2024-01-27T10:10:50;29.70;;;5.05;;
31652;SDS011;18261;53.648;9.910;2024-01-27T10:13:20;35.80;;;6.10;;
31652;SDS011;18261;53.648;9.910;2024-01-27T10:18:30;38.88;;;5.90;;
31652;SDS011;18261;53.648;9.910;2024-01-27T10:20:56;39.80;;;6.28;;
31652;SDS011;18261;53.648;9.910;2024-01-27T10:23:22;41.60;;;5.85;;
31652;SDS011;18261;53.648;9.910;2024-01-27T10:25:48;31.27;;;5.32;;
31652;SDS011;18261;53.648;9.910;2024-01-27T10:28:15;31.65;;;5.03;;
31652;SDS011;18261;53.648;9.910;2024-01-27T10:30:41;30.10;;;5.10;;
31652;SDS011;18261;53.648;9.910;2024-01-27T10:33:10;32.45;;;6.25;;
31652;SDS011;18261;53.648;9.910;2024-01-27T10:35:38;41.38;;;6.70;;
31652;SDS011;18261;53.648;9.910;2024-01-27T10:38:22;35.08;;;5.63;;
31652;SDS011;18261;53.648;9.910;2024-01-27T10:41:02;36.90;;;6.00;;
31652;SDS011;18261;53.648;9.910;2024-01-27T10:43:32;39.53;;;6.03;;
31652;SDS011;18261;53.648;9.910;2024-01-27T10:46:00;43.95;;;5.85;;
31652;SDS011;18261;53.648;9.910;2024-01-27T10:48:33;46.92;;;6.07;;
31652;SDS011;18261;53.648;9.910;2024-01-27T10:51:03;32.90;;;5.22;;
31652;SDS011;18261;53.648;9.910;2024-01-27T10:53:34;43.58;;;6.18;;
31652;SDS011;18261;53.648;9.910;2024-01-27T10:56:02;41.47;;;6.28;;
31652;SDS011;18261;53.648;9.910;2024-01-27T10:58:34;44.13;;;6.07;;
31652;SDS011;18261;53.648;9.910;2024-01-27T11:01:07;37.60;;;6.38;;
31652;SDS011;18261;53.648;9.910;2024-01-27T11:03:36;53.42;;;6.35;;
31652;SDS011;18261;53.648;9.910;2024-01-27T11:06:04;38.72;;;6.07;;
31652;SDS011;18261;53.648;9.910;2024-01-27T11:08:30;47.40;;;6.50;;
31652;SDS011;18261;53.648;9.910;2024-01-27T11:10:58;49.58;;;7.25;;
31652;SDS011;18261;53.648;9.910;2024-01-27T11:13:25;36.78;;;5.78;;
31652;SDS011;18261;53.648;9.910;2024-01-27T11:15:53;39.42;;;6.47;;
31652;SDS011;18261;53.648;9.910;2024-01-27T11:18:19;43.13;;;6.88;;
31652;SDS011;18261;53.648;9.910;2024-01-27T11:20:45;35.13;;;5.80;;
31652;SDS011;18261;53.648;9.910;2024-01-27T11:23:11;36.55;;;6.32;;
31652;SDS011;18261;53.648;9.910;2024-01-27T11:25:38;47.90;;;7.15;;
31652;SDS011;18261;53.648;9.910;2024-01-27T11:28:11;33.85;;;5.40;;
31652;SDS011;18261;53.648;9.910;2024-01-27T11:30:44;39.42;;;5.18;;
31652;SDS011;18261;53.648;9.910;2024-01-27T11:33:11;32.05;;;5.90;;
31652;SDS011;18261;53.648;9.910;2024-01-27T11:35:37;46.22;;;5.97;;
31652;SDS011;18261;53.648;9.910;2024-01-27T11:38:03;54.83;;;11.77;;
31652;SDS011;18261;53.648;9.910;2024-01-27T11:40:29;53.83;;;16.70;;
31652;SDS011;18261;53.648;9.910;2024-01-27T11:42:55;56.78;;;11.65;;
31652;SDS011;18261;53.648;9.910;2024-01-27T11:45:25;36.90;;;6.68;;
31652;SDS011;18261;53.648;9.910;2024-01-27T11:47:52;34.33;;;6.07;;
31652;SDS011;18261;53.648;9.910;2024-01-27T11:50:18;36.53;;;7.88;;
31652;SDS011;18261;53.648;9.910;2024-01-27T11:52:45;49.58;;;12.98;;
31652;SDS011;18261;53.648;9.910;2024-01-27T11:55:11;32.95;;;7.47;;
31652;SDS011;18261;53.648;9.910;2024-01-27T11:57:37;56.47;;;12.70;;
31652;SDS011;18261;53.648;9.910;2024-01-27T12:00:03;40.88;;;5.82;;
31652;SDS011;18261;53.648;9.910;2024-01-27T12:02:29;39.22;;;8.07;;
31652;SDS011;18261;53.648;9.910;2024-01-27T12:04:55;34.40;;;7.38;;
31652;SDS011;18261;53.648;9.910;2024-01-27T12:07:21;35.58;;;6.68;;
31652;SDS011;18261;53.648;9.910;2024-01-27T12:09:50;39.25;;;7.13;;
31652;SDS011;18261;53.648;9.910;2024-01-27T12:12:16;32.67;;;6.65;;
31652;SDS011;18261;53.648;9.910;2024-01-27T12:14:44;33.60;;;6.38;;
31652;SDS011;18261;53.648;9.910;2024-01-27T12:17:11;33.00;;;9.30;;
31652;SDS011;18261;53.648;9.910;2024-01-27T12:19:37;30.33;;;6.55;;
31652;SDS011;18261;53.648;9.910;2024-01-27T12:22:03;24.20;;;4.70;;
31652;SDS011;18261;53.648;9.910;2024-01-27T12:24:30;32.42;;;5.55;;
31652;SDS011;18261;53.648;9.910;2024-01-27T12:26:57;28.17;;;4.97;;
31652;SDS011;18261;53.648;9.910;2024-01-27T12:29:24;29.40;;;5.10;;
31652;SDS011;18261;53.648;9.910;2024-01-27T12:31:49;34.88;;;6.22;;
31652;SDS011;18261;53.648;9.910;2024-01-27T12:34:16;26.95;;;4.18;;
31652;SDS011;18261;53.648;9.910;2024-01-27T12:36:42;27.60;;;4.72;;
31652;SDS011;18261;53.648;9.910;2024-01-27T12:39:09;32.80;;;5.88;;
31652;SDS011;18261;53.648;9.910;2024-01-27T12:41:35;22.77;;;4.97;;
31652;SDS011;18261;53.648;9.910;2024-01-27T12:44:01;26.27;;;6.13;;
31652;SDS011;18261;53.648;9.910;2024-01-27T12:46:30;28.17;;;5.05;;
31652;SDS011;18261;53.648;9.910;2024-01-27T12:48:56;26.23;;;5.40;;
31652;SDS011;18261;53.648;9.910;2024-01-27T12:51:22;27.02;;;4.93;;
31652;SDS011;18261;53.648;9.910;2024-01-27T12:53:47;26.25;;;4.85;;
31652;SDS011;18261;53.648;9.910;2024-01-27T12:56:13;27.85;;;5.22;;
31652;SDS011;18261;53.648;9.910;2024-01-27T12:58:40;33.15;;;5.70;;
31652;SDS011;18261;53.648;9.910;2024-01-27T13:01:07;35.80;;;5.63;;
31652;SDS011;18261;53.648;9.910;2024-01-27T13:03:33;30.83;;;4.50;;
31652;SDS011;18261;53.648;9.910;2024-01-27T13:06:00;30.83;;;4.60;;
31652;SDS011;18261;53.648;9.910;2024-01-27T13:08:26;27.77;;;5.05;;
31652;SDS011;18261;53.648;9.910;2024-01-27T13:10:52;29.38;;;4.85;;
31652;SDS011;18261;53.648;9.910;2024-01-27T13:13:18;26.75;;;5.28;;
31652;SDS011;18261;53.648;9.910;2024-01-27T13:15:44;26.23;;;5.25;;
31652;SDS011;18261;53.648;9.910;2024-01-27T13:18:10;29.00;;;5.47;;
31652;SDS011;18261;53.648;9.910;2024-01-27T13:20:36;33.95;;;5.53;;
31652;SDS011;18261;53.648;9.910;2024-01-27T13:23:02;31.20;;;5.93;;
31652;SDS011;18261;53.648;9.910;2024-01-27T13:25:28;30.60;;;5.47;;
31652;SDS011;18261;53.648;9.910;2024-01-27T13:27:53;31.90;;;5.57;;
31652;SDS011;18261;53.648;9.910;2024-01-27T13:30:19;26.27;;;4.65;;
31652;SDS011;18261;53.648;9.910;2024-01-27T13:32:45;36.47;;;8.93;;
31652;SDS011;18261;53.648;9.910;2024-01-27T13:35:11;25.42;;;4.93;;
31652;SDS011;18261;53.648;9.910;2024-01-27T13:37:37;27.58;;;5.05;;
31652;SDS011;18261;53.648;9.910;2024-01-27T13:40:02;30.27;;;5.30;;
31652;SDS011;18261;53.648;9.910;2024-01-27T13:42:29;27.67;;;5.93;;
31652;SDS011;18261;53.648;9.910;2024-01-27T13:44:58;28.48;;;5.20;;
31652;SDS011;18261;53.648;9.910;2024-01-27T13:47:24;34.75;;;5.78;;
31652;SDS011;18261;53.648;9.910;2024-01-27T13:49:49;24.83;;;4.78;;
31652;SDS011;18261;53.648;9.910;2024-01-27T13:52:15;29.00;;;4.63;;
31652;SDS011;18261;53.648;9.910;2024-01-27T13:54:41;32.58;;;6.53;;
31652;SDS011;18261;53.648;9.910;2024-01-27T13:57:06;33.53;;;6.35;;
31652;SDS011;18261;53.648;9.910;2024-01-27T13:59:35;30.75;;;5.50;;
31652;SDS011;18261;53.648;9.910;2024-01-27T14:02:01;27.58;;;5.05;;
31652;SDS011;18261;53.648;9.910;2024-01-27T14:04:26;28.35;;;6.32;;
31652;SDS011;18261;53.648;9.910;2024-01-27T14:06:52;37.22;;;5.05;;
31652;SDS011;18261;53.648;9.910;2024-01-27T14:09:27;23.13;;;4.22;;
31652;SDS011;18261;53.648;9.910;2024-01-27T14:11:53;37.08;;;5.38;;
31652;SDS011;18261;53.648;9.910;2024-01-27T14:14:19;23.50;;;4.63;;
31652;SDS011;18261;53.648;9.910;2024-01-27T14:16:46;27.90;;;4.75;;
31652;SDS011;18261;53.648;9.910;2024-01-27T14:19:12;32.35;;;4.93;;
31652;SDS011;18261;53.648;9.910;2024-01-27T14:21:38;26.50;;;4.35;;
31652;SDS011;18261;53.648;9.910;2024-01-27T14:24:04;31.88;;;4.90;;
31652;SDS011;18261;53.648;9.910;2024-01-27T14:26:31;25.83;;;4.30;;
31652;SDS011;18261;53.648;9.910;2024-01-27T14:28:57;32.75;;;4.40;;
31652;SDS011;18261;53.648;9.910;2024-01-27T14:31:23;21.90;;;4.82;;
31652;SDS011;18261;53.648;9.910;2024-01-27T14:33:49;33.83;;;5.25;;